createdAt,value
2022-08-29T00:01:13.392Z,99.90
2022-08-29T00:03:43.116Z,99.90
2022-08-29T00:06:10.948Z,99.90
2022-08-29T00:08:39.538Z,99.90
2022-08-29T00:11:08.179Z,99.90
2022-08-29T00:13:36.198Z,99.90
2022-08-29T00:16:03.549Z,99.90
2022-08-29T00:18:32.730Z,99.90
2022-08-29T00:20:59.940Z,99.90
2022-08-29T00:23:27.063Z,99.90
2022-08-29T00:25:54.849Z,99.90
2022-08-29T00:28:22.149Z,99.90
2022-08-29T00:30:51.079Z,99.90
2022-08-29T00:33:18.475Z,99.90
2022-08-29T00:35:46.363Z,99.90
2022-08-29T00:38:18.196Z,99.90
2022-08-29T00:40:54.583Z,99.90
2022-08-29T00:43:26.440Z,99.90
2022-08-29T00:45:59.296Z,99.90
2022-08-29T00:48:26.993Z,99.90
2022-08-29T00:50:57.421Z,99.90
2022-08-29T00:53:32.034Z,99.90
2022-08-29T00:56:00.423Z,99.90
2022-08-29T00:58:35.556Z,99.90
2022-08-29T01:01:03.568Z,99.90
2022-08-29T01:03:33.843Z,99.90
2022-08-29T01:06:02.300Z,99.90
2022-08-29T01:08:30.388Z,99.90
2022-08-29T01:11:16.351Z,99.90
2022-08-29T01:13:47.030Z,99.90
2022-08-29T01:16:14.920Z,99.90
2022-08-29T01:18:45.409Z,99.90
2022-08-29T01:21:29.982Z,99.90
2022-08-29T01:24:18.297Z,99.90
2022-08-29T01:26:47.337Z,99.90
2022-08-29T01:29:15.684Z,99.90
2022-08-29T01:31:56.625Z,99.90
2022-08-29T01:34:28.335Z,99.90
2022-08-29T01:37:01.912Z,99.90
2022-08-29T01:39:35.773Z,99.90
2022-08-29T01:42:13.589Z,99.90
2022-08-29T01:44:41.610Z,99.90
2022-08-29T01:47:09.517Z,99.90
2022-08-29T01:49:38.821Z,99.90
2022-08-29T01:52:09.251Z,99.90
2022-08-29T01:54:36.522Z,99.90
2022-08-29T01:57:03.998Z,99.90
2022-08-29T01:59:31.869Z,99.90
2022-08-29T02:02:19.993Z,99.90
2022-08-29T02:04:48.462Z,99.90
2022-08-29T02:07:17.685Z,99.90
2022-08-29T02:09:46.065Z,99.90
2022-08-29T02:12:15.710Z,99.90
2022-08-29T02:14:42.917Z,99.90
2022-08-29T02:17:10.344Z,99.90
2022-08-29T02:19:38.933Z,99.90
2022-08-29T02:22:07.722Z,99.90
2022-08-29T02:24:34.825Z,99.90
2022-08-29T02:27:02.068Z,99.90
2022-08-29T02:29:37.203Z,99.90
2022-08-29T02:32:08.365Z,99.90
2022-08-29T02:34:35.893Z,99.90
2022-08-29T02:37:04.833Z,99.90
2022-08-29T02:39:34.257Z,99.90
2022-08-29T02:42:02.037Z,99.90
2022-08-29T02:44:29.569Z,99.90
2022-08-29T02:46:57.221Z,99.90
2022-08-29T02:49:24.186Z,99.90
2022-08-29T02:51:51.133Z,99.90
2022-08-29T02:54:18.366Z,99.90
2022-08-29T02:56:45.288Z,99.90
2022-08-29T02:59:14.296Z,99.90
2022-08-29T03:01:41.505Z,99.90
2022-08-29T03:04:08.672Z,99.90
2022-08-29T03:06:35.612Z,99.90
2022-08-29T03:09:03.626Z,99.90
2022-08-29T03:11:31.106Z,99.90
2022-08-29T03:13:58.223Z,99.90
2022-08-29T03:16:26.784Z,99.90
2022-08-29T03:18:54.889Z,99.90
2022-08-29T03:21:25.804Z,99.90
2022-08-29T03:23:55.888Z,99.90
2022-08-29T03:26:23.884Z,99.90
2022-08-29T03:28:51.186Z,99.90
2022-08-29T03:31:19.260Z,99.90
2022-08-29T03:33:46.540Z,99.90
2022-08-29T03:36:14.178Z,99.90
2022-08-29T03:38:43.677Z,99.90
2022-08-29T03:41:12.069Z,99.90
2022-08-29T03:43:39.081Z,99.90
2022-08-29T03:46:06.942Z,99.90
2022-08-29T03:48:34.439Z,99.90
2022-08-29T03:51:01.622Z,99.90
2022-08-29T03:53:30.059Z,99.90
2022-08-29T03:55:58.394Z,99.90
2022-08-29T03:58:26.026Z,99.90
2022-08-29T04:00:53.308Z,99.90
2022-08-29T04:03:24.957Z,99.90
2022-08-29T04:05:59.356Z,99.90
2022-08-29T04:08:26.727Z,99.90
2022-08-29T04:10:54.073Z,99.90
2022-08-29T04:13:22.381Z,99.90
2022-08-29T04:15:50.484Z,99.90
2022-08-29T04:18:21.388Z,99.90
2022-08-29T04:20:49.648Z,99.90
2022-08-29T04:23:16.855Z,99.90
2022-08-29T04:25:44.590Z,99.90
2022-08-29T04:28:14.953Z,99.90
2022-08-29T04:30:51.846Z,99.90
2022-08-29T04:33:23.485Z,99.90
2022-08-29T04:35:52.024Z,99.90
2022-08-29T04:38:19.822Z,99.90
2022-08-29T04:40:47.837Z,99.90
2022-08-29T04:43:15.351Z,99.90
2022-08-29T04:45:42.871Z,99.90
2022-08-29T04:48:11.446Z,99.90
2022-08-29T04:50:39.075Z,99.90
2022-08-29T04:53:06.506Z,99.90
2022-08-29T04:55:33.856Z,99.90
2022-08-29T04:58:01.624Z,99.90
2022-08-29T05:00:31.526Z,99.90
2022-08-29T05:03:00.682Z,99.90
2022-08-29T05:05:28.483Z,99.90
2022-08-29T05:07:56.093Z,99.90
2022-08-29T05:10:24.167Z,99.90
2022-08-29T05:12:52.300Z,99.90
2022-08-29T05:15:20.219Z,99.90
2022-08-29T05:17:47.994Z,99.90
2022-08-29T05:20:18.996Z,99.90
2022-08-29T05:22:46.555Z,99.90
2022-08-29T05:25:18.365Z,99.90
2022-08-29T05:27:46.174Z,99.90
2022-08-29T05:30:13.694Z,99.90
2022-08-29T05:32:41.525Z,99.90
2022-08-29T05:35:10.027Z,99.90
2022-08-29T05:37:39.043Z,99.90
2022-08-29T05:40:08.287Z,99.90
2022-08-29T05:42:36.158Z,99.90
2022-08-29T05:45:08.303Z,99.90
2022-08-29T05:47:36.480Z,99.90
2022-08-29T05:50:04.496Z,99.90
2022-08-29T05:52:32.642Z,99.90
2022-08-29T05:55:02.361Z,99.90
2022-08-29T05:57:32.844Z,99.90
2022-08-29T06:00:01.278Z,99.90
2022-08-29T06:02:29.035Z,99.90
2022-08-29T06:04:57.724Z,99.90
2022-08-29T06:07:25.686Z,99.90
2022-08-29T06:09:53.577Z,99.90
2022-08-29T06:12:21.314Z,99.90
2022-08-29T06:14:52.401Z,99.90
2022-08-29T06:17:21.202Z,99.90
2022-08-29T06:19:51.563Z,99.90
2022-08-29T06:22:20.308Z,99.90
2022-08-29T06:24:48.433Z,99.90
2022-08-29T06:27:16.835Z,99.90
2022-08-29T06:29:44.607Z,99.90
2022-08-29T06:32:14.266Z,99.90
2022-08-29T06:34:42.139Z,99.90
2022-08-29T06:37:10.478Z,99.90
2022-08-29T06:39:38.093Z,99.90
2022-08-29T06:42:05.720Z,99.90
2022-08-29T06:44:34.233Z,99.90
2022-08-29T06:47:02.735Z,99.70
2022-08-29T06:49:30.296Z,98.80
2022-08-29T06:51:59.168Z,97.60
2022-08-29T06:54:29.078Z,96.40
2022-08-29T06:56:59.413Z,94.20
2022-08-29T06:59:28.316Z,92.30
2022-08-29T07:01:55.856Z,91.30
2022-08-29T07:04:26.654Z,89.50
2022-08-29T07:06:55.406Z,86.60
2022-08-29T07:09:23.141Z,84.50
2022-08-29T07:11:50.647Z,85.60
2022-08-29T07:14:18.668Z,81.70
2022-08-29T07:16:46.224Z,79.60
2022-08-29T07:19:14.546Z,77.00
2022-08-29T07:21:43.348Z,75.60
2022-08-29T07:24:11.291Z,74.40
2022-08-29T07:26:43.755Z,72.80
2022-08-29T07:29:19.419Z,72.80
2022-08-29T07:31:47.950Z,72.10
2022-08-29T07:34:15.927Z,70.40
2022-08-29T07:36:43.942Z,68.90
2022-08-29T07:39:17.404Z,67.60
2022-08-29T07:41:49.738Z,64.90
2022-08-29T07:44:19.472Z,66.10
2022-08-29T07:46:47.902Z,66.20
2022-08-29T07:49:16.364Z,65.30
2022-08-29T07:51:47.149Z,64.90
2022-08-29T07:54:17.186Z,63.10
2022-08-29T07:56:47.554Z,60.70
2022-08-29T07:59:16.301Z,59.80
2022-08-29T08:01:45.168Z,59.80
2022-08-29T08:04:24.907Z,57.80
2022-08-29T08:06:52.972Z,58.80
2022-08-29T08:09:20.958Z,58.20
2022-08-29T08:11:49.396Z,57.80
2022-08-29T08:14:17.705Z,56.30
2022-08-29T08:16:46.080Z,55.60
2022-08-29T08:19:15.755Z,56.30
2022-08-29T08:21:49.679Z,57.40
2022-08-29T08:24:20.398Z,54.60
2022-08-29T08:26:49.691Z,54.70
2022-08-29T08:29:18.303Z,54.00
2022-08-29T08:31:49.029Z,55.90
2022-08-29T08:34:19.132Z,55.70
2022-08-29T08:36:47.483Z,54.90
2022-08-29T08:39:15.821Z,55.40
2022-08-29T08:41:53.210Z,54.80
2022-08-29T08:44:25.107Z,54.10
2022-08-29T08:46:58.637Z,52.30
2022-08-29T08:50:03.687Z,51.70
2022-08-29T08:53:01.448Z,51.80
2022-08-29T08:55:43.404Z,51.60
2022-08-29T08:58:33.237Z,50.70
2022-08-29T09:01:19.109Z,50.00
2022-08-29T09:03:58.491Z,48.00
2022-08-29T09:06:40.706Z,50.00
2022-08-29T09:09:24.992Z,51.80
2022-08-29T09:12:05.220Z,52.40
2022-08-29T09:14:34.150Z,51.80
2022-08-29T09:17:04.259Z,50.30
2022-08-29T09:19:32.474Z,49.70
2022-08-29T09:22:10.665Z,48.10
2022-08-29T09:24:50.409Z,47.00
2022-08-29T09:27:29.170Z,47.90
2022-08-29T09:30:21.395Z,48.10
2022-08-29T09:33:02.398Z,47.10
2022-08-29T09:35:38.129Z,45.70
2022-08-29T09:38:09.738Z,46.00
2022-08-29T09:40:52.201Z,45.10
2022-08-29T09:43:44.719Z,45.60
2022-08-29T09:46:12.913Z,45.20
2022-08-29T09:48:52.549Z,45.30
2022-08-29T09:51:30.869Z,45.70
2022-08-29T09:54:26.536Z,45.30
2022-08-29T09:57:19.394Z,45.20
2022-08-29T09:59:51.178Z,48.20
2022-08-29T10:02:27.058Z,54.40
2022-08-29T10:05:02.094Z,59.30
2022-08-29T10:07:36.342Z,60.90
2022-08-29T10:10:18.325Z,65.70
2022-08-29T10:13:02.206Z,66.20
2022-08-29T10:15:54.754Z,67.30
2022-08-29T10:18:43.225Z,68.50
2022-08-29T10:21:13.348Z,71.40
2022-08-29T10:24:18.915Z,72.00
2022-08-29T10:26:53.707Z,74.20
2022-08-29T10:29:39.771Z,72.80
2022-08-29T10:32:38.574Z,75.00
2022-08-29T10:35:30.423Z,75.50
2022-08-29T10:38:18.744Z,75.20
2022-08-29T10:40:57.280Z,73.50
2022-08-29T10:43:45.242Z,75.90
2022-08-29T10:46:33.587Z,76.60
2022-08-29T10:49:49.563Z,80.50
2022-08-29T10:52:45.443Z,85.30
2022-08-29T10:55:48.815Z,89.30
2022-08-29T10:58:35.952Z,81.90
2022-08-29T11:04:17.910Z,84.50
2022-08-29T11:07:08.102Z,83.60
2022-08-29T11:09:38.693Z,85.60
2022-08-29T11:12:21.671Z,91.00
2022-08-29T11:15:22.591Z,90.60
2022-08-29T11:18:33.468Z,87.80
2022-08-29T11:21:31.898Z,84.30
2022-08-29T11:24:03.934Z,81.50
2022-08-29T11:26:41.565Z,87.10
2022-08-29T11:29:34.189Z,89.80
2022-08-29T11:32:15.785Z,88.70
2022-08-29T11:35:11.061Z,91.30
2022-08-29T11:37:53.835Z,83.00
2022-08-29T11:43:54.727Z,90.20
2022-08-29T11:46:56.473Z,89.80
2022-08-29T11:49:49.693Z,88.70
2022-08-29T11:52:27.915Z,87.00
2022-08-29T11:55:24.110Z,79.40
2022-08-29T11:57:59.339Z,79.30
2022-08-29T12:00:39.344Z,81.80
2022-08-29T12:03:33.525Z,81.00
2022-08-29T12:06:43.029Z,82.10
2022-08-29T12:09:14.418Z,89.40
2022-08-29T12:12:12.757Z,87.20
2022-08-29T12:14:42.913Z,87.70
2022-08-29T12:18:00.323Z,84.80
2022-08-29T12:20:31.862Z,89.90
2022-08-29T12:23:11.107Z,88.00
2022-08-29T12:26:22.164Z,87.40
2022-08-29T12:29:10.621Z,88.90
2022-08-29T12:32:23.837Z,89.00
2022-08-29T12:35:10.567Z,89.90
2022-08-29T12:38:11.960Z,90.50
2022-08-29T12:40:42.392Z,91.60
2022-08-29T12:43:36.537Z,92.40
2022-08-29T12:46:21.484Z,93.60
2022-08-29T12:48:57.674Z,92.20
2022-08-29T12:51:35.400Z,92.50
2022-08-29T12:54:04.042Z,91.60
2022-08-29T12:56:32.540Z,93.20
2022-08-29T12:59:04.080Z,92.40
2022-08-29T13:01:40.603Z,93.50
2022-08-29T13:04:11.533Z,92.30
2022-08-29T13:06:51.613Z,90.40
2022-08-29T13:09:53.112Z,92.40
2022-08-29T13:12:29.988Z,91.40
2022-08-29T13:14:57.615Z,90.70
2022-08-29T13:17:30.713Z,89.40
2022-08-29T13:20:46.279Z,87.50
2022-08-29T13:23:24.686Z,88.60
2022-08-29T13:25:53.980Z,90.70
2022-08-29T13:28:26.402Z,91.80
2022-08-29T13:31:11.912Z,93.40
2022-08-29T13:34:00.138Z,94.20
2022-08-29T13:36:27.606Z,94.80
2022-08-29T13:39:17.568Z,94.80
2022-08-29T13:41:48.984Z,95.10
2022-08-29T13:44:18.862Z,96.50
2022-08-29T13:46:47.697Z,96.50
2022-08-29T13:49:24.879Z,96.70
2022-08-29T13:51:52.665Z,97.60
2022-08-29T13:54:20.731Z,98.30
2022-08-29T13:56:56.690Z,97.90
2022-08-29T13:59:27.637Z,97.40
2022-08-29T14:02:11.247Z,97.80
2022-08-29T14:04:41.124Z,97.20
2022-08-29T14:07:11.960Z,98.60
2022-08-29T14:09:42.970Z,99.90
2022-08-29T14:12:10.520Z,99.70
2022-08-29T14:14:37.991Z,99.90
2022-08-29T14:17:05.916Z,99.90
2022-08-29T14:19:36.624Z,99.90
2022-08-29T14:22:04.754Z,99.90
2022-08-29T14:24:33.977Z,99.90
2022-08-29T14:27:02.846Z,99.90
2022-08-29T14:29:31.749Z,99.90
2022-08-29T14:32:02.962Z,97.40
2022-08-29T14:34:33.419Z,98.00
2022-08-29T14:37:02.058Z,97.90
2022-08-29T14:39:30.486Z,98.70
2022-08-29T14:41:58.024Z,96.50
2022-08-29T14:44:26.140Z,92.50
2022-08-29T14:46:53.381Z,83.20
2022-08-29T14:49:21.188Z,79.70
2022-08-29T14:51:48.996Z,77.20
2022-08-29T14:54:18.142Z,81.00
2022-08-29T14:56:49.245Z,84.00
2022-08-29T14:59:22.588Z,89.20
2022-08-29T15:01:54.278Z,92.00
2022-08-29T15:04:36.381Z,93.70
2022-08-29T15:07:09.329Z,92.20
2022-08-29T15:09:40.500Z,90.70
2022-08-29T15:12:13.433Z,90.60
2022-08-29T15:14:41.716Z,91.40
2022-08-29T15:17:09.096Z,91.60
2022-08-29T15:20:18.275Z,92.20
2022-08-29T15:22:26.794Z,93.20
2022-08-29T15:24:55.475Z,92.50
2022-08-29T15:27:27.380Z,92.70
2022-08-29T15:29:57.838Z,93.60
2022-08-29T15:32:25.962Z,93.80
2022-08-29T15:35:00.862Z,94.20
2022-08-29T15:37:29.662Z,93.60
2022-08-29T15:39:58.056Z,93.70
2022-08-29T15:42:31.101Z,94.00
2022-08-29T15:45:05.837Z,93.80
2022-08-29T15:47:37.342Z,94.40
2022-08-29T15:50:08.431Z,95.30
2022-08-29T15:52:37.534Z,95.70
2022-08-29T15:55:06.666Z,95.50
2022-08-29T15:57:40.267Z,95.50
2022-08-29T16:00:30.381Z,95.40
2022-08-29T16:03:04.650Z,95.70
2022-08-29T16:05:33.507Z,95.90
2022-08-29T16:08:02.531Z,96.30
2022-08-29T16:10:31.890Z,97.50
2022-08-29T16:12:59.903Z,97.00
2022-08-29T16:15:31.372Z,97.10
2022-08-29T16:18:03.923Z,96.30
2022-08-29T16:20:32.287Z,96.00
2022-08-29T16:23:01.807Z,95.80
2022-08-29T16:25:31.697Z,96.00
2022-08-29T16:27:59.930Z,97.00
2022-08-29T16:30:29.724Z,98.10
2022-08-29T16:32:58.214Z,99.10
2022-08-29T16:35:26.279Z,99.70
2022-08-29T16:38:02.702Z,99.90
2022-08-29T16:40:35.011Z,99.90
2022-08-29T16:43:04.445Z,99.90
2022-08-29T16:45:32.917Z,99.90
2022-08-29T16:48:00.915Z,99.90
2022-08-29T16:50:30.211Z,99.90
2022-08-29T16:52:57.950Z,99.90
2022-08-29T16:55:25.976Z,99.90
2022-08-29T16:58:12.398Z,99.90
2022-08-29T17:00:41.318Z,99.90
2022-08-29T17:03:09.553Z,99.90
2022-08-29T17:05:37.914Z,99.90
2022-08-29T17:08:05.661Z,99.90
2022-08-29T17:10:33.373Z,99.90
2022-08-29T17:13:00.993Z,99.90
2022-08-29T17:15:28.322Z,99.90
2022-08-29T17:17:56.408Z,99.90
2022-08-29T17:20:24.792Z,99.90
2022-08-29T17:22:52.748Z,99.90
2022-08-29T17:25:21.599Z,99.90
2022-08-29T17:28:14.298Z,99.90
2022-08-29T17:30:40.649Z,99.90
2022-08-29T17:33:10.897Z,99.90
2022-08-29T17:35:38.966Z,99.90
2022-08-29T17:38:06.783Z,99.90
2022-08-29T17:40:36.864Z,99.90
2022-08-29T17:43:04.552Z,99.90
2022-08-29T17:45:32.470Z,99.90
2022-08-29T17:47:59.713Z,99.90
2022-08-29T17:50:27.478Z,99.90
2022-08-29T17:52:55.454Z,99.90
2022-08-29T17:55:22.970Z,99.90
2022-08-29T17:57:54.990Z,99.90
2022-08-29T18:00:25.064Z,99.90
2022-08-29T18:02:52.969Z,99.90
2022-08-29T18:05:20.479Z,99.90
2022-08-29T18:07:48.008Z,99.90
2022-08-29T18:10:16.437Z,99.90
2022-08-29T18:12:43.422Z,99.90
2022-08-29T18:15:12.366Z,99.90
2022-08-29T18:17:40.722Z,99.90
2022-08-29T18:20:11.030Z,99.90
2022-08-29T18:22:39.792Z,99.90
2022-08-29T18:25:07.353Z,99.90
2022-08-29T18:27:34.413Z,99.90
2022-08-29T18:30:04.485Z,99.90
2022-08-29T18:32:34.753Z,99.90
2022-08-29T18:35:05.222Z,99.90
2022-08-29T18:37:32.188Z,99.90
2022-08-29T18:39:59.190Z,99.90
2022-08-29T18:42:40.049Z,99.90
2022-08-29T18:45:09.277Z,99.90
2022-08-29T18:47:37.309Z,99.90
2022-08-29T18:50:25.171Z,99.90
2022-08-29T18:52:53.163Z,99.90
2022-08-29T18:55:22.787Z,99.90
2022-08-29T18:57:50.723Z,99.90
2022-08-29T19:00:18.981Z,99.90
2022-08-29T19:02:46.430Z,99.90
2022-08-29T19:05:13.649Z,99.90
2022-08-29T19:07:41.083Z,99.90
2022-08-29T19:10:08.593Z,99.90
2022-08-29T19:12:35.584Z,99.90
2022-08-29T19:15:05.628Z,99.90
2022-08-29T19:17:32.609Z,99.90
2022-08-29T19:20:18.448Z,99.90
2022-08-29T19:22:46.823Z,99.90
2022-08-29T19:25:13.809Z,99.90
2022-08-29T19:27:44.079Z,99.90
2022-08-29T19:30:13.880Z,99.90
2022-08-29T19:32:41.074Z,99.90
2022-08-29T19:35:11.081Z,99.90
2022-08-29T19:37:40.128Z,99.90
2022-08-29T19:40:09.054Z,99.90
2022-08-29T19:42:37.492Z,99.90
2022-08-29T19:45:08.966Z,99.90
2022-08-29T19:47:36.262Z,99.90
2022-08-29T19:50:06.333Z,99.90
2022-08-29T19:52:33.945Z,99.90
2022-08-29T19:55:03.785Z,99.90
2022-08-29T19:57:31.080Z,99.90
2022-08-29T19:59:58.546Z,99.90
2022-08-29T20:02:26.206Z,99.90
2022-08-29T20:04:53.595Z,99.90
2022-08-29T20:07:21.053Z,99.90
2022-08-29T20:09:48.177Z,99.90
2022-08-29T20:12:15.191Z,99.90
2022-08-29T20:14:42.736Z,99.90
2022-08-29T20:17:11.001Z,99.90
2022-08-29T20:19:39.913Z,99.90
2022-08-29T20:22:07.341Z,99.90
2022-08-29T20:24:34.770Z,99.90
2022-08-29T20:27:02.649Z,99.90
2022-08-29T20:29:30.452Z,99.90
2022-08-29T20:31:58.990Z,99.90
2022-08-29T20:34:29.844Z,99.90
2022-08-29T20:37:09.382Z,99.90
2022-08-29T20:39:46.486Z,99.90
2022-08-29T20:42:16.110Z,99.90
2022-08-29T20:44:45.318Z,99.90
2022-08-29T20:47:18.789Z,99.90
2022-08-29T20:49:47.610Z,99.90
2022-08-29T20:52:18.499Z,99.90
2022-08-29T20:54:46.385Z,99.90
2022-08-29T20:57:14.984Z,99.90
2022-08-29T20:59:42.870Z,99.90
2022-08-29T21:02:10.947Z,99.90
2022-08-29T21:04:56.791Z,99.90
2022-08-29T21:07:23.745Z,99.90
2022-08-29T21:09:51.923Z,99.90
2022-08-29T21:12:20.596Z,99.90
2022-08-29T21:14:47.939Z,99.90
2022-08-29T21:17:16.246Z,99.90
2022-08-29T21:19:43.829Z,99.90
2022-08-29T21:22:13.402Z,99.90
2022-08-29T21:24:41.245Z,99.90
2022-08-29T21:27:08.528Z,99.90
2022-08-29T21:29:36.352Z,99.90
2022-08-29T21:32:03.929Z,99.90
2022-08-29T21:34:31.273Z,99.90
2022-08-29T21:36:58.210Z,99.90
2022-08-29T21:39:28.563Z,99.90
2022-08-29T21:41:57.073Z,99.90
2022-08-29T21:44:24.246Z,99.90
2022-08-29T21:46:51.822Z,99.90
2022-08-29T21:49:21.755Z,99.90
2022-08-29T21:51:49.271Z,99.90
2022-08-29T21:54:17.763Z,99.90
2022-08-29T21:56:45.796Z,99.90
2022-08-29T21:59:15.163Z,99.90
2022-08-29T22:01:45.609Z,99.90
2022-08-29T22:04:19.248Z,99.90
2022-08-29T22:06:55.954Z,99.90
2022-08-29T22:09:23.196Z,99.90
2022-08-29T22:11:50.411Z,99.90
2022-08-29T22:14:17.955Z,99.90
2022-08-29T22:16:44.866Z,99.90
2022-08-29T22:19:14.859Z,99.90
2022-08-29T22:21:49.816Z,99.90
2022-08-29T22:24:18.021Z,99.90
2022-08-29T22:26:46.550Z,99.90
2022-08-29T22:29:14.308Z,99.90
2022-08-29T22:31:42.781Z,99.90
2022-08-29T22:34:12.222Z,99.90
2022-08-29T22:36:39.195Z,99.90
2022-08-29T22:39:06.578Z,99.90
2022-08-29T22:41:34.235Z,99.90
2022-08-29T22:44:52.730Z,99.90
2022-08-29T22:46:49.253Z,99.90
2022-08-29T22:49:16.321Z,99.90
2022-08-29T22:51:43.265Z,99.90
2022-08-29T22:54:29.219Z,99.90
2022-08-29T22:56:56.118Z,99.90
2022-08-29T22:59:23.314Z,99.90
2022-08-29T23:01:50.647Z,99.90
2022-08-29T23:04:17.718Z,99.90
2022-08-29T23:06:45.505Z,99.90
2022-08-29T23:09:13.020Z,99.90
2022-08-29T23:11:40.714Z,99.90
2022-08-29T23:14:09.263Z,99.90
2022-08-29T23:16:40.231Z,99.90
2022-08-29T23:19:07.377Z,99.90
2022-08-29T23:21:35.545Z,99.90
2022-08-29T23:24:07.337Z,99.90
2022-08-29T23:26:34.707Z,99.90
2022-08-29T23:29:02.142Z,99.90
2022-08-29T23:31:29.149Z,99.90
2022-08-29T23:33:56.275Z,99.90
2022-08-29T23:36:23.500Z,99.90
2022-08-29T23:38:52.781Z,99.90
2022-08-29T23:41:20.037Z,99.90
2022-08-29T23:43:47.218Z,99.90
2022-08-29T23:46:14.695Z,99.90
2022-08-29T23:48:41.686Z,99.90
2022-08-29T23:51:10.695Z,99.90
2022-08-29T23:53:37.939Z,99.90
2022-08-29T23:56:12.755Z,99.90
2022-08-29T23:58:40.550Z,99.90
